KICT/ICT METAR and TAF weather

Enter ICAO airport designator
Station Type Date Time Source
KICT METAR 2018/12/15 03:53 UTC NOAA

KICT 150353Z 35005KT 10SM CLR 01/M07 A3021 RMK AO2 SLP241 T00061067 $


Station Type Date Time Source
KICT Decoded METAR 2018/12/15 03:53 UTC NOAA

WICHITA MID-CONTINENT AIRPORT , KS, United States (KICT) 37-39N 97-26W 408M
Dec 14, 2018 - 10:53 PM EST / 2018.12.15 0353 UTC
Wind: from the N (350 degrees) at 6 MPH (5 KT):0
Visibility: 10 mile(s):0
Sky conditions: clear
Temperature: 33.1 F (0.6 C)
Windchill: 28 F (-2 C):1
Dew Point: 19.9 F (-6.7 C)
Relative Humidity: 58%
Pressure (altimeter): 30.21 in. Hg (1023 hPa)
ob: KICT 150353Z 35005KT 10SM CLR 01/M07 A3021 RMK AO2 SLP241 T00061067
cycle: 4

Station Type Date Time Source
KICT TAF 2018/12/14 18:22 UTC NOAA

TAF KICT 141720Z 1418/1518 36016G22KT P6SM SKC
FM142300 36009KT P6SM SKC


Example: see airport list